createdAt,value
2023-03-31T00:00:58.158Z,14.20
2023-03-31T00:03:28.021Z,20.35
2023-03-31T00:06:00.181Z,13.98
2023-03-31T00:08:30.862Z,14.95
2023-03-31T00:11:01.456Z,15.05
2023-03-31T00:13:30.355Z,17.15
2023-03-31T00:15:59.336Z,12.85
2023-03-31T00:18:29.853Z,13.00
2023-03-31T00:21:07.972Z,13.35
2023-03-31T00:23:36.144Z,12.68
2023-03-31T00:26:04.707Z,14.38
2023-03-31T00:28:33.017Z,16.23
2023-03-31T00:31:04.972Z,15.15
2023-03-31T00:33:34.526Z,18.88
2023-03-31T00:36:06.494Z,13.10
2023-03-31T00:38:35.450Z,17.48
2023-03-31T00:41:04.258Z,19.05
2023-03-31T00:43:34.287Z,22.92
2023-03-31T00:46:08.263Z,14.73
2023-03-31T00:48:39.279Z,18.30
2023-03-31T00:51:09.183Z,22.15
2023-03-31T00:53:38.698Z,13.80
2023-03-31T00:56:12.700Z,13.32
2023-03-31T00:58:43.976Z,20.30
2023-03-31T01:01:17.285Z,18.45
2023-03-31T01:03:47.513Z,20.83
2023-03-31T01:06:19.860Z,16.80
2023-03-31T01:08:50.130Z,20.67
2023-03-31T01:11:21.947Z,16.50
2023-03-31T01:13:52.712Z,16.85
2023-03-31T01:16:21.019Z,30.05
2023-03-31T01:18:51.273Z,23.08
2023-03-31T01:21:38.604Z,19.02
2023-03-31T01:24:49.934Z,18.88
2023-03-31T01:27:38.375Z,19.48
2023-03-31T01:30:18.005Z,21.75
2023-03-31T01:33:21.892Z,17.70
2023-03-31T01:36:25.101Z,18.75
2023-03-31T01:39:29.540Z,19.50
2023-03-31T01:42:06.423Z,18.77
2023-03-31T01:44:42.048Z,16.75
2023-03-31T01:47:18.403Z,16.60
2023-03-31T01:49:53.030Z,14.77
2023-03-31T01:52:25.857Z,22.50
2023-03-31T01:54:58.097Z,15.43
2023-03-31T01:57:32.985Z,15.77
2023-03-31T02:00:07.428Z,19.27
2023-03-31T02:02:39.726Z,17.58
2023-03-31T02:05:12.236Z,15.13
2023-03-31T02:07:44.625Z,13.63
2023-03-31T02:10:14.258Z,17.55
2023-03-31T02:12:45.425Z,15.95
2023-03-31T02:15:18.354Z,16.33
2023-03-31T02:17:51.023Z,14.82
2023-03-31T02:20:22.605Z,15.73
2023-03-31T02:22:55.036Z,14.90
2023-03-31T02:25:26.308Z,11.63
2023-03-31T02:28:00.704Z,15.98
2023-03-31T02:30:37.730Z,16.45
2023-03-31T02:33:06.275Z,20.10
2023-03-31T02:35:36.873Z,13.05
2023-03-31T02:38:06.851Z,14.48
2023-03-31T02:40:35.035Z,13.48
2023-03-31T02:43:04.933Z,13.55
2023-03-31T02:45:42.046Z,13.82
2023-03-31T02:48:14.773Z,12.52
2023-03-31T02:51:11.920Z,15.98
2023-03-31T02:53:50.732Z,17.50
2023-03-31T02:56:36.126Z,13.07
2023-03-31T02:59:28.906Z,9.32
2023-03-31T03:02:11.544Z,11.30
2023-03-31T03:04:54.684Z,10.90
2023-03-31T03:07:29.245Z,12.82
2023-03-31T03:10:03.549Z,12.50
2023-03-31T03:12:42.172Z,14.40
2023-03-31T03:15:14.630Z,10.25
2023-03-31T03:17:44.974Z,8.52
2023-03-31T03:20:16.189Z,8.75
2023-03-31T03:22:44.772Z,9.02
2023-03-31T03:25:15.096Z,11.68
2023-03-31T03:27:43.231Z,7.47
2023-03-31T03:30:14.710Z,12.20
2023-03-31T03:32:43.255Z,10.02
2023-03-31T03:35:12.090Z,7.38
2023-03-31T03:37:40.449Z,9.48
2023-03-31T03:40:10.510Z,9.40
2023-03-31T03:42:39.250Z,14.13
2023-03-31T03:45:08.141Z,9.65
2023-03-31T03:47:37.882Z,10.77
2023-03-31T03:50:06.995Z,11.80
2023-03-31T03:52:35.141Z,19.55
2023-03-31T03:55:03.566Z,8.10
2023-03-31T03:57:32.003Z,10.50
2023-03-31T04:00:00.177Z,10.05
2023-03-31T04:02:29.126Z,10.57
2023-03-31T04:04:58.800Z,17.15
2023-03-31T04:07:27.094Z,20.25
2023-03-31T04:09:55.256Z,14.32
2023-03-31T04:12:23.327Z,16.15
2023-03-31T04:14:51.425Z,12.38
2023-03-31T04:17:20.360Z,11.95
2023-03-31T04:19:52.335Z,13.20
2023-03-31T04:22:21.859Z,8.65
2023-03-31T04:24:52.863Z,11.43
2023-03-31T04:27:21.165Z,13.05
2023-03-31T04:29:54.832Z,8.27
2023-03-31T04:32:23.344Z,8.43
2023-03-31T04:34:51.815Z,8.35
2023-03-31T04:37:21.330Z,8.30
2023-03-31T04:39:50.782Z,5.97
2023-03-31T04:42:19.034Z,3.30
2023-03-31T04:44:47.156Z,6.03
2023-03-31T04:47:15.412Z,4.63
2023-03-31T04:49:43.552Z,6.25
2023-03-31T04:52:11.703Z,5.60
2023-03-31T04:54:41.560Z,6.25
2023-03-31T04:57:10.571Z,4.22
2023-03-31T04:59:39.054Z,4.93
2023-03-31T05:02:07.628Z,7.38
2023-03-31T05:04:36.070Z,4.82
2023-03-31T05:07:04.483Z,6.95
2023-03-31T05:09:34.646Z,9.48
2023-03-31T05:12:04.725Z,10.50
2023-03-31T05:14:32.918Z,9.55
2023-03-31T05:17:01.472Z,12.63
2023-03-31T05:19:30.042Z,10.82
2023-03-31T05:21:58.456Z,12.45
2023-03-31T05:24:28.383Z,10.68
2023-03-31T05:26:57.592Z,8.55
2023-03-31T05:29:27.223Z,14.30
2023-03-31T05:31:56.050Z,12.93
2023-03-31T05:34:24.185Z,18.25
2023-03-31T05:36:53.998Z,12.18
2023-03-31T05:39:22.613Z,15.75
2023-03-31T05:41:50.856Z,18.15
2023-03-31T05:44:20.766Z,10.80
2023-03-31T05:46:50.478Z,15.98
2023-03-31T05:49:18.740Z,13.63
2023-03-31T05:51:47.838Z,12.70
2023-03-31T05:54:16.042Z,16.00
2023-03-31T05:56:44.256Z,12.60
2023-03-31T05:59:12.418Z,16.50
2023-03-31T06:01:40.660Z,15.65
2023-03-31T06:04:10.284Z,15.32
2023-03-31T06:06:38.451Z,12.82
2023-03-31T06:09:07.016Z,14.88
2023-03-31T06:11:35.435Z,19.02
2023-03-31T06:14:03.614Z,16.48
2023-03-31T06:16:31.853Z,16.15
2023-03-31T06:18:59.987Z,23.00
2023-03-31T06:21:29.676Z,18.65
2023-03-31T06:23:58.398Z,24.88
2023-03-31T06:26:26.542Z,20.83
2023-03-31T06:28:55.173Z,19.50
2023-03-31T06:31:25.112Z,11.27
2023-03-31T06:33:54.030Z,18.48
2023-03-31T06:36:23.461Z,21.02
2023-03-31T06:38:53.548Z,18.88
2023-03-31T06:41:22.603Z,24.73
2023-03-31T06:43:51.009Z,17.85
2023-03-31T06:46:19.662Z,20.58
2023-03-31T06:48:47.893Z,18.25
2023-03-31T06:51:16.377Z,18.40
2023-03-31T06:53:44.527Z,20.27
2023-03-31T06:56:14.449Z,21.98
2023-03-31T06:58:42.646Z,23.10
2023-03-31T07:01:11.788Z,22.05
2023-03-31T07:03:40.438Z,24.70
2023-03-31T07:06:08.937Z,19.85
2023-03-31T07:08:37.291Z,20.75
2023-03-31T07:11:06.541Z,19.90
2023-03-31T07:13:38.383Z,20.75
2023-03-31T07:16:10.071Z,25.70
2023-03-31T07:18:42.162Z,25.67
2023-03-31T07:21:13.120Z,17.83
2023-03-31T07:23:41.653Z,24.48
2023-03-31T07:26:11.481Z,22.98
2023-03-31T07:28:41.056Z,25.60
2023-03-31T07:31:13.198Z,23.05
2023-03-31T07:33:41.669Z,21.38
2023-03-31T07:36:13.253Z,31.17
2023-03-31T07:38:42.385Z,24.10
2023-03-31T07:41:12.332Z,23.02
2023-03-31T07:43:42.129Z,24.45
2023-03-31T07:46:16.633Z,19.05
2023-03-31T07:48:46.409Z,15.97
2023-03-31T07:51:15.100Z,22.02
2023-03-31T07:53:43.265Z,28.88
2023-03-31T07:56:11.405Z,21.35
2023-03-31T07:58:40.929Z,18.20
2023-03-31T08:01:09.383Z,25.30
2023-03-31T08:03:37.771Z,26.63
2023-03-31T08:06:06.536Z,27.80
2023-03-31T08:08:34.824Z,20.48
2023-03-31T08:11:06.039Z,27.05
2023-03-31T08:13:35.497Z,26.25
2023-03-31T08:16:05.666Z,30.15
2023-03-31T08:18:36.475Z,19.98
2023-03-31T08:21:04.684Z,18.27
2023-03-31T08:23:33.178Z,31.45
2023-03-31T08:26:10.570Z,23.40
2023-03-31T08:28:38.728Z,25.02
2023-03-31T08:31:10.399Z,24.10
2023-03-31T08:33:38.868Z,29.40
2023-03-31T08:36:10.810Z,23.55
2023-03-31T08:38:41.726Z,16.38
2023-03-31T08:41:23.781Z,22.67
2023-03-31T08:43:54.372Z,23.75
2023-03-31T08:46:24.665Z,19.60
2023-03-31T08:48:56.359Z,20.10
2023-03-31T08:51:29.342Z,27.02
2023-03-31T08:54:03.631Z,23.95
2023-03-31T08:56:37.947Z,13.85
2023-03-31T08:59:07.005Z,16.58
2023-03-31T09:01:54.515Z,17.13
2023-03-31T09:04:39.294Z,13.63
2023-03-31T09:07:15.143Z,18.45
2023-03-31T09:09:51.350Z,19.55
2023-03-31T09:12:23.293Z,15.45
2023-03-31T09:14:55.677Z,17.58
2023-03-31T09:17:28.509Z,21.02
2023-03-31T09:19:59.825Z,18.13
2023-03-31T09:22:32.594Z,20.73
2023-03-31T09:25:06.668Z,24.23
2023-03-31T09:27:37.441Z,23.77
2023-03-31T09:30:11.643Z,19.15
2023-03-31T09:32:41.462Z,18.55
2023-03-31T09:35:18.184Z,18.23
2023-03-31T09:37:46.594Z,22.58
2023-03-31T09:40:18.875Z,17.80
2023-03-31T09:42:48.624Z,21.23
2023-03-31T09:45:18.546Z,23.58
2023-03-31T09:47:52.872Z,26.48
2023-03-31T09:50:25.228Z,20.35
2023-03-31T09:52:56.400Z,23.40
2023-03-31T09:55:39.005Z,20.25
2023-03-31T09:58:08.875Z,20.33
2023-03-31T10:00:37.831Z,21.30
2023-03-31T10:03:08.523Z,20.58
2023-03-31T10:05:40.150Z,26.20
2023-03-31T10:08:30.750Z,19.92
2023-03-31T10:11:08.893Z,20.90
2023-03-31T10:13:46.584Z,22.55
2023-03-31T10:16:16.539Z,29.75
2023-03-31T10:18:46.062Z,28.33
2023-03-31T10:21:25.978Z,34.05
2023-03-31T10:23:56.274Z,20.10
2023-03-31T10:26:27.931Z,26.80
2023-03-31T10:28:56.435Z,25.67
2023-03-31T10:31:28.834Z,21.13
2023-03-31T10:33:59.675Z,19.95
2023-03-31T10:36:31.862Z,20.02
2023-03-31T10:39:00.397Z,26.20
2023-03-31T10:41:30.887Z,30.40
2023-03-31T10:44:00.519Z,18.73
2023-03-31T10:46:42.779Z,20.77
2023-03-31T10:49:26.904Z,23.35
2023-03-31T10:51:56.200Z,17.77
2023-03-31T10:54:24.512Z,25.90
2023-03-31T10:56:54.431Z,16.52
2023-03-31T10:59:38.068Z,26.02
2023-03-31T11:02:46.717Z,21.30
2023-03-31T11:05:25.453Z,17.10
2023-03-31T11:08:06.500Z,18.73
2023-03-31T11:10:45.902Z,27.30
2023-03-31T11:13:20.943Z,25.40
2023-03-31T11:15:55.585Z,24.67
2023-03-31T11:18:48.942Z,16.97
2023-03-31T11:21:25.381Z,19.23
2023-03-31T11:24:04.957Z,21.60
2023-03-31T11:26:45.027Z,21.52
2023-03-31T11:29:31.136Z,27.80
2023-03-31T11:32:17.670Z,23.55
2023-03-31T11:35:07.993Z,19.33
2023-03-31T11:37:50.706Z,16.40
2023-03-31T11:40:40.959Z,25.23
2023-03-31T11:43:14.080Z,18.85
2023-03-31T11:45:48.235Z,18.92
2023-03-31T11:48:22.277Z,18.20
2023-03-31T11:50:52.219Z,17.60
2023-03-31T11:53:26.657Z,17.30
2023-03-31T11:55:57.828Z,16.90
2023-03-31T11:58:31.154Z,11.98
2023-03-31T12:01:06.153Z,20.05
2023-03-31T12:03:44.234Z,19.17
2023-03-31T12:06:19.035Z,14.35
2023-03-31T12:08:58.814Z,11.95
2023-03-31T12:11:34.192Z,19.85
2023-03-31T12:16:43.884Z,16.92
2023-03-31T12:19:18.343Z,15.30
2023-03-31T12:21:51.563Z,16.90
2023-03-31T12:24:21.223Z,18.20
2023-03-31T12:27:02.208Z,22.23
2023-03-31T12:29:35.087Z,16.23
2023-03-31T12:32:08.678Z,14.88
2023-03-31T12:34:43.753Z,16.92
2023-03-31T12:37:56.822Z,19.55
2023-03-31T12:40:37.652Z,16.58
2023-03-31T12:43:24.022Z,11.27
2023-03-31T12:45:59.241Z,17.48
2023-03-31T12:48:51.819Z,20.50
2023-03-31T12:51:41.097Z,15.27
2023-03-31T12:54:22.756Z,19.20
2023-03-31T12:57:14.782Z,16.50
2023-03-31T12:59:44.121Z,11.50
2023-03-31T13:02:27.140Z,10.93
2023-03-31T13:04:55.510Z,13.23
2023-03-31T13:07:43.400Z,9.35
2023-03-31T13:10:30.219Z,6.40
2023-03-31T13:13:04.653Z,7.25
2023-03-31T13:15:34.105Z,9.93
2023-03-31T13:18:04.259Z,5.57
2023-03-31T13:20:36.014Z,9.98
2023-03-31T13:23:07.066Z,6.88
2023-03-31T13:25:44.093Z,8.02
2023-03-31T13:28:43.957Z,5.63
2023-03-31T13:31:13.034Z,5.53
2023-03-31T13:33:57.199Z,2.60
2023-03-31T13:36:53.593Z,3.75
2023-03-31T13:39:55.829Z,3.30
2023-03-31T13:43:00.868Z,2.42
2023-03-31T13:45:48.196Z,4.50
2023-03-31T13:48:29.087Z,4.57
2023-03-31T13:51:33.504Z,4.72
2023-03-31T13:54:45.746Z,5.13
2023-03-31T13:57:48.276Z,3.45
2023-03-31T14:00:28.196Z,5.20
2023-03-31T14:03:19.386Z,1.70
2023-03-31T14:05:51.270Z,4.13
2023-03-31T14:08:28.255Z,4.10
2023-03-31T14:11:16.217Z,4.45
2023-03-31T14:13:44.433Z,6.97
2023-03-31T14:16:15.927Z,3.65
2023-03-31T14:18:55.365Z,2.10
2023-03-31T14:21:31.006Z,2.95
2023-03-31T14:24:06.572Z,6.03
2023-03-31T14:26:49.045Z,4.28
2023-03-31T14:29:21.928Z,2.70
2023-03-31T14:31:58.446Z,6.13
2023-03-31T14:34:42.993Z,1.33
2023-03-31T14:37:16.203Z,2.85
2023-03-31T14:39:47.147Z,2.42
2023-03-31T14:42:17.792Z,3.17
2023-03-31T14:44:48.530Z,2.85
2023-03-31T14:47:21.430Z,1.35
2023-03-31T14:50:01.220Z,1.35
2023-03-31T14:52:32.077Z,3.47
2023-03-31T14:55:01.379Z,4.05
2023-03-31T14:57:32.630Z,2.90
2023-03-31T15:00:05.020Z,2.42
2023-03-31T15:02:35.601Z,2.70
2023-03-31T15:05:09.832Z,2.40
2023-03-31T15:07:38.566Z,2.03
2023-03-31T15:10:08.577Z,1.67
2023-03-31T15:12:38.797Z,2.47
2023-03-31T15:15:08.743Z,2.20
2023-03-31T15:17:41.393Z,2.22
2023-03-31T15:20:29.050Z,1.92
2023-03-31T15:22:58.551Z,3.72
2023-03-31T15:25:30.625Z,1.80
2023-03-31T15:28:03.088Z,2.47
2023-03-31T15:30:31.852Z,3.15
2023-03-31T15:35:50.927Z,3.42
2023-03-31T15:38:19.701Z,5.35
2023-03-31T15:40:52.993Z,5.60
2023-03-31T15:43:30.215Z,5.38
2023-03-31T15:45:59.646Z,6.82
2023-03-31T15:48:33.371Z,5.68
2023-03-31T15:51:06.661Z,5.75
2023-03-31T15:53:38.971Z,4.88
2023-03-31T15:56:07.740Z,6.18
2023-03-31T15:58:55.202Z,3.95
2023-03-31T16:01:24.506Z,3.75
2023-03-31T16:03:56.522Z,2.05
2023-03-31T16:06:34.805Z,4.93
2023-03-31T16:09:06.047Z,9.45
2023-03-31T16:11:39.321Z,4.72
2023-03-31T16:14:12.256Z,4.03
2023-03-31T16:16:46.566Z,3.55
2023-03-31T16:19:15.164Z,6.80
2023-03-31T16:21:50.187Z,4.28
2023-03-31T16:24:18.555Z,4.53
2023-03-31T16:26:46.808Z,5.35
2023-03-31T16:29:22.453Z,5.60
2023-03-31T16:31:50.989Z,3.40
2023-03-31T16:34:19.236Z,7.22
2023-03-31T16:36:49.423Z,6.00
2023-03-31T16:39:17.606Z,7.25
2023-03-31T16:41:47.826Z,6.78
2023-03-31T16:44:15.999Z,5.28
2023-03-31T16:46:44.178Z,12.55
2023-03-31T16:49:12.375Z,10.10
2023-03-31T16:51:40.748Z,5.90
2023-03-31T16:54:10.543Z,11.27
2023-03-31T16:56:38.707Z,10.38
2023-03-31T16:59:08.255Z,6.32
2023-03-31T17:01:36.580Z,10.50
2023-03-31T17:04:04.890Z,10.43
2023-03-31T17:06:33.242Z,7.70
2023-03-31T17:09:01.730Z,8.63
2023-03-31T17:14:19.866Z,11.57
2023-03-31T17:16:48.899Z,9.32
2023-03-31T17:19:18.112Z,10.88
2023-03-31T17:21:46.204Z,6.68
2023-03-31T17:24:14.617Z,8.85
2023-03-31T17:26:44.099Z,9.60
2023-03-31T17:29:14.575Z,8.88
2023-03-31T17:31:43.625Z,7.53
2023-03-31T17:34:11.867Z,10.70
2023-03-31T17:36:41.991Z,5.13
2023-03-31T17:39:10.228Z,7.75
2023-03-31T17:41:38.729Z,7.22
2023-03-31T17:44:08.851Z,9.45
2023-03-31T17:46:37.048Z,8.77
2023-03-31T17:49:05.593Z,6.95
2023-03-31T17:51:35.048Z,10.80
2023-03-31T17:54:03.983Z,8.23
2023-03-31T17:56:32.151Z,11.93
2023-03-31T17:59:00.668Z,9.38
2023-03-31T18:01:30.332Z,4.57
2023-03-31T18:03:59.458Z,10.55
2023-03-31T18:06:27.828Z,11.63
2023-03-31T18:08:57.815Z,6.78
2023-03-31T18:11:26.037Z,9.27
2023-03-31T18:13:54.261Z,13.55
2023-03-31T18:16:22.457Z,13.45
2023-03-31T18:18:52.052Z,12.25
2023-03-31T18:21:20.392Z,11.05
2023-03-31T18:23:52.635Z,15.45
2023-03-31T18:26:21.899Z,13.48
2023-03-31T18:28:50.140Z,15.27
2023-03-31T18:31:18.891Z,12.68
2023-03-31T18:33:47.002Z,10.32
2023-03-31T18:36:18.806Z,10.90
2023-03-31T18:38:47.484Z,14.20
2023-03-31T18:41:15.876Z,14.73
2023-03-31T18:43:44.692Z,8.85
2023-03-31T18:46:12.932Z,15.77
2023-03-31T18:48:42.026Z,12.25
2023-03-31T18:51:10.271Z,11.98
2023-03-31T18:53:39.751Z,16.02
2023-03-31T18:56:07.964Z,14.23
2023-03-31T18:58:37.368Z,16.30
2023-03-31T19:01:05.795Z,13.23
2023-03-31T19:03:33.990Z,19.83
2023-03-31T19:06:04.708Z,14.30
2023-03-31T19:08:33.212Z,18.13
2023-03-31T19:11:07.551Z,15.02
2023-03-31T19:13:36.019Z,13.70
2023-03-31T19:16:04.353Z,18.80
2023-03-31T19:18:32.922Z,17.33
2023-03-31T19:21:03.739Z,22.90
2023-03-31T19:23:32.791Z,17.75
2023-03-31T19:26:02.596Z,18.27
2023-03-31T19:28:32.472Z,19.90
2023-03-31T19:31:03.481Z,24.70
2023-03-31T19:33:31.765Z,21.63
2023-03-31T19:36:00.294Z,16.55
2023-03-31T19:38:32.072Z,21.80
2023-03-31T19:41:00.453Z,14.13
2023-03-31T19:43:30.288Z,20.83
2023-03-31T19:46:03.398Z,23.88
2023-03-31T19:48:33.998Z,15.93
2023-03-31T19:51:05.939Z,21.65
2023-03-31T19:53:34.150Z,15.88
2023-03-31T19:56:05.074Z,16.27
2023-03-31T19:58:35.899Z,23.48
2023-03-31T20:01:07.566Z,23.92
2023-03-31T20:03:36.366Z,13.07
2023-03-31T20:06:07.141Z,19.80
2023-03-31T20:08:43.060Z,20.83
2023-03-31T20:11:13.524Z,20.17
2023-03-31T20:13:43.176Z,20.90
2023-03-31T20:16:14.438Z,18.65
2023-03-31T20:18:47.929Z,20.58
2023-03-31T20:21:18.219Z,15.55
2023-03-31T20:23:47.919Z,18.67
2023-03-31T20:26:19.256Z,15.00
2023-03-31T20:28:47.848Z,17.95
2023-03-31T20:31:20.223Z,19.02
2023-03-31T20:33:49.311Z,18.75
2023-03-31T20:36:19.248Z,16.38
2023-03-31T20:38:51.188Z,14.07
2023-03-31T20:41:20.791Z,14.38
2023-03-31T20:43:50.541Z,15.55
2023-03-31T20:46:20.294Z,17.00
2023-03-31T20:48:51.064Z,16.23
2023-03-31T20:51:21.942Z,19.83
2023-03-31T20:53:52.823Z,14.00
2023-03-31T20:56:23.243Z,14.38
2023-03-31T20:58:53.642Z,12.82
2023-03-31T21:01:23.701Z,16.15
2023-03-31T21:03:51.980Z,15.77
2023-03-31T21:06:20.700Z,13.20
2023-03-31T21:08:53.462Z,13.13
2023-03-31T21:11:22.642Z,5.78
2023-03-31T21:13:51.040Z,11.30
2023-03-31T21:16:19.295Z,8.88
2023-03-31T21:18:48.931Z,10.13
2023-03-31T21:21:19.340Z,14.52
2023-03-31T21:23:49.657Z,10.68
2023-03-31T21:26:18.301Z,10.45
2023-03-31T21:28:46.826Z,13.30
2023-03-31T21:31:17.134Z,9.90
2023-03-31T21:33:47.147Z,9.15
2023-03-31T21:36:18.350Z,14.82
2023-03-31T21:38:46.987Z,12.07
2023-03-31T21:41:17.373Z,10.38
2023-03-31T21:43:46.274Z,11.35
2023-03-31T21:46:17.412Z,12.60
2023-03-31T21:48:45.664Z,15.48
2023-03-31T21:51:13.757Z,18.48
2023-03-31T21:53:44.359Z,16.80
2023-03-31T21:56:12.444Z,11.85
2023-03-31T21:58:40.630Z,13.88
2023-03-31T22:01:09.384Z,18.23
2023-03-31T22:03:38.719Z,16.08
2023-03-31T22:06:08.310Z,21.30
2023-03-31T22:08:37.956Z,19.85
2023-03-31T22:11:09.113Z,15.23
2023-03-31T22:13:37.629Z,17.08
2023-03-31T22:16:06.538Z,17.35
2023-03-31T22:18:34.727Z,16.83
2023-03-31T22:21:03.496Z,14.93
2023-03-31T22:23:32.724Z,15.40
2023-03-31T22:26:00.977Z,16.58
2023-03-31T22:28:30.525Z,13.57
2023-03-31T22:30:58.621Z,16.88
2023-03-31T22:33:26.719Z,13.40
2023-03-31T22:35:54.869Z,15.05
2023-03-31T22:38:23.002Z,15.82
2023-03-31T22:40:51.130Z,14.32
2023-03-31T22:43:19.388Z,15.90
2023-03-31T22:45:48.914Z,12.00
2023-03-31T22:48:18.308Z,20.50
2023-03-31T22:50:46.885Z,14.77
2023-03-31T22:53:15.088Z,14.63
2023-03-31T22:55:44.116Z,16.23
2023-03-31T22:58:22.919Z,18.08
2023-03-31T23:00:57.732Z,12.35
2023-03-31T23:03:26.357Z,16.30
2023-03-31T23:05:54.628Z,13.20
2023-03-31T23:08:22.917Z,14.60
2023-03-31T23:10:57.923Z,10.00
2023-03-31T23:13:27.936Z,7.70
2023-03-31T23:15:57.775Z,12.50
2023-03-31T23:18:25.928Z,8.98
2023-03-31T23:20:54.083Z,9.98
2023-03-31T23:23:22.184Z,13.40
2023-03-31T23:25:50.389Z,11.07
2023-03-31T23:28:18.589Z,8.27
2023-03-31T23:30:54.009Z,9.25
2023-03-31T23:33:23.755Z,9.27
2023-03-31T23:35:52.630Z,7.50
2023-03-31T23:38:21.387Z,6.85
2023-03-31T23:40:49.596Z,8.90
2023-03-31T23:43:18.250Z,10.35
2023-03-31T23:45:46.445Z,5.97
2023-03-31T23:48:14.625Z,7.07
2023-03-31T23:50:44.162Z,7.78
2023-03-31T23:53:13.018Z,10.07
2023-03-31T23:55:41.571Z,6.00
2023-03-31T23:58:09.823Z,6.70
